Sainte-Thecle, Canada
Current Conditions -  °F | °C
As of 7:00 PM on Wednesday 26 Nov 2014 (Local Time) from CYRQ Reporting Station
Overcast Overcast  
Wind Chill: 23°   Ceiling: 10000
Heat Index: 30°   Visibility: 9mi
Dew Point: 19°   Wind: 8mph
Humidity: 64%   Direction: 20°NNE
Pressure: 30.15"   Gusts: NA
Location:  46.8°N, 72.5°W
Report Text: CYRQ 270000Z AUTO 02007KT 9SM OVC100 M01/M07 A3015 RMK PRESFR SLP211
Loading
Personal Weather Stations






























Interactive Weather Map New forecast layout! Learn more

10-Day Weather Forecast

Advertisements
Track Severe Weather on mobile